createdAt,value
2023-01-29T00:00:17.771Z,80.1
2023-01-29T00:01:17.468Z,80.1
2023-01-29T00:02:17.086Z,80.2
2023-01-29T00:03:16.763Z,80.2
2023-01-29T00:04:17.268Z,80.1
2023-01-29T00:05:28.288Z,80.2
2023-01-29T00:06:17.031Z,80.4
2023-01-29T00:07:16.563Z,80.2
2023-01-29T00:08:17.096Z,80.2
2023-01-29T00:09:16.624Z,80.3
2023-01-29T00:10:17.785Z,80.0
2023-01-29T00:11:17.387Z,80.0
2023-01-29T00:12:17.259Z,79.9
2023-01-29T00:13:16.749Z,80.1
2023-01-29T00:14:17.242Z,80.1
2023-01-29T00:15:16.721Z,80.2
2023-01-29T00:16:17.247Z,80.2
2023-01-29T00:17:16.829Z,80.3
2023-01-29T00:18:17.401Z,80.4
2023-01-29T00:19:16.911Z,80.4
2023-01-29T00:20:18.643Z,80.5
2023-01-29T00:21:17.324Z,80.3
2023-01-29T00:22:17.422Z,80.3
2023-01-29T00:23:16.964Z,80.2
2023-01-29T00:24:16.640Z,80.2
2023-01-29T00:25:17.193Z,80.0
2023-01-29T00:26:16.693Z,80.0
2023-01-29T00:27:17.234Z,80.0
2023-01-29T00:28:16.761Z,80.1
2023-01-29T00:29:17.252Z,80.0
2023-01-29T00:30:17.361Z,80.0
2023-01-29T00:31:17.356Z,80.2
2023-01-29T00:32:17.278Z,80.2
2023-01-29T00:33:16.820Z,80.1
2023-01-29T00:34:17.351Z,80.0
2023-01-29T00:35:16.861Z,80.1
2023-01-29T00:36:17.365Z,80.0
2023-01-29T00:37:16.899Z,80.0
2023-01-29T00:38:17.411Z,80.0
2023-01-29T00:39:16.899Z,80.1
2023-01-29T00:40:18.161Z,80.2
2023-01-29T00:41:16.825Z,80.2
2023-01-29T00:42:17.080Z,80.3
2023-01-29T00:43:16.553Z,80.4
2023-01-29T00:44:17.032Z,80.3
2023-01-29T00:45:16.608Z,80.3
2023-01-29T00:46:17.291Z,80.3
2023-01-29T00:47:16.829Z,80.3
2023-01-29T00:48:17.357Z,80.5
2023-01-29T00:49:16.884Z,80.5
2023-01-29T00:50:18.505Z,80.3
2023-01-29T00:51:17.093Z,80.2
2023-01-29T00:52:17.421Z,80.4
2023-01-29T00:53:16.968Z,80.5
2023-01-29T00:54:16.504Z,80.6
2023-01-29T00:55:17.031Z,80.7
2023-01-29T00:56:16.523Z,80.7
2023-01-29T00:57:17.056Z,80.6
2023-01-29T00:58:16.547Z,80.5
2023-01-29T00:59:17.045Z,80.6
2023-01-29T01:00:17.183Z,80.3
2023-01-29T01:01:16.961Z,80.5
2023-01-29T01:02:17.138Z,80.5
2023-01-29T01:03:16.670Z,80.7
2023-01-29T01:04:17.179Z,80.6
2023-01-29T01:05:16.676Z,80.5
2023-01-29T01:06:17.202Z,80.5
2023-01-29T01:07:16.698Z,80.4
2023-01-29T01:08:17.207Z,80.2
2023-01-29T01:09:16.701Z,80.3
2023-01-29T01:10:18.011Z,80.3
2023-01-29T01:11:16.692Z,80.4
2023-01-29T01:12:17.315Z,80.4
2023-01-29T01:13:16.823Z,80.4
2023-01-29T01:14:17.327Z,80.5
2023-01-29T01:15:16.829Z,80.4
2023-01-29T01:16:17.471Z,80.5
2023-01-29T01:17:16.975Z,80.4
2023-01-29T01:18:16.513Z,80.6
2023-01-29T01:19:17.321Z,80.6
2023-01-29T01:20:17.634Z,80.7
2023-01-29T01:21:17.263Z,80.4
2023-01-29T01:22:16.736Z,80.5
2023-01-29T01:23:17.246Z,80.4
2023-01-29T01:24:16.970Z,80.3
2023-01-29T01:25:16.464Z,80.1
2023-01-29T01:26:17.023Z,80.1
2023-01-29T01:27:16.530Z,80.1
2023-01-29T01:28:17.023Z,80.1
2023-01-29T01:29:16.514Z,80.1
2023-01-29T01:30:17.953Z,80.0
2023-01-29T01:31:16.801Z,79.8
2023-01-29T01:32:16.747Z,79.9
2023-01-29T01:33:17.280Z,80.0
2023-01-29T01:34:16.808Z,80.0
2023-01-29T01:35:17.344Z,79.9
2023-01-29T01:36:16.825Z,80.0
2023-01-29T01:37:17.296Z,80.1
2023-01-29T01:38:16.784Z,80.3
2023-01-29T01:39:17.333Z,80.3
2023-01-29T01:40:17.395Z,80.1
2023-01-29T01:41:17.026Z,80.1
2023-01-29T01:42:16.834Z,80.1
2023-01-29T01:43:17.401Z,80.2
2023-01-29T01:44:16.891Z,80.2
2023-01-29T01:45:17.378Z,80.2
2023-01-29T01:46:16.918Z,80.2
2023-01-29T01:47:17.420Z,80.2
2023-01-29T01:48:16.886Z,80.3
2023-01-29T01:49:17.429Z,80.3
2023-01-29T01:50:17.654Z,80.2
2023-01-29T01:51:17.311Z,80.3
2023-01-29T01:52:16.925Z,80.3
2023-01-29T01:53:17.419Z,80.3
2023-01-29T01:54:16.918Z,80.0
2023-01-29T01:55:17.415Z,80.2
2023-01-29T01:56:16.892Z,80.2
2023-01-29T01:57:17.433Z,80.3
2023-01-29T01:58:16.932Z,80.4
2023-01-29T01:59:17.461Z,80.4
2023-01-29T02:00:17.691Z,80.3
2023-01-29T02:01:17.524Z,80.3
2023-01-29T02:02:17.231Z,80.4
2023-01-29T02:03:16.736Z,80.4
2023-01-29T02:04:17.246Z,80.4
2023-01-29T02:05:16.717Z,80.3
2023-01-29T02:06:17.240Z,80.3
2023-01-29T02:07:16.723Z,80.5
2023-01-29T02:08:17.235Z,80.4
2023-01-29T02:09:16.793Z,80.5
2023-01-29T02:10:17.912Z,80.8
2023-01-29T02:11:16.536Z,80.8
2023-01-29T02:12:17.237Z,80.9
2023-01-29T02:13:16.773Z,80.6
2023-01-29T02:14:17.265Z,80.6
2023-01-29T02:15:16.771Z,80.5
2023-01-29T02:16:17.257Z,80.5
2023-01-29T02:17:16.902Z,80.5
2023-01-29T02:18:17.383Z,80.3
2023-01-29T02:19:16.847Z,80.3
2023-01-29T02:20:18.163Z,80.4
2023-01-29T02:21:16.959Z,80.6
2023-01-29T02:22:17.174Z,80.3
2023-01-29T02:23:16.689Z,80.4
2023-01-29T02:24:17.373Z,80.4
2023-01-29T02:25:16.900Z,80.4
2023-01-29T02:26:17.387Z,80.5
2023-01-29T02:27:16.859Z,80.5
2023-01-29T02:28:17.446Z,80.4
2023-01-29T02:29:16.981Z,80.4
2023-01-29T02:30:17.352Z,80.3
2023-01-29T02:31:17.194Z,80.3
2023-01-29T02:32:16.577Z,80.3
2023-01-29T02:33:17.075Z,80.3
2023-01-29T02:34:16.583Z,80.3
2023-01-29T02:35:17.091Z,80.3
2023-01-29T02:36:16.597Z,80.4
2023-01-29T02:37:17.106Z,80.5
2023-01-29T02:38:16.602Z,80.5
2023-01-29T02:39:17.110Z,80.5
2023-01-29T02:40:17.225Z,80.3
2023-01-29T02:41:16.906Z,80.2
2023-01-29T02:42:17.433Z,80.3
2023-01-29T02:43:16.955Z,80.3
2023-01-29T02:44:17.458Z,80.6
2023-01-29T02:45:16.977Z,80.6
2023-01-29T02:46:16.569Z,80.7
2023-01-29T02:47:17.130Z,80.6
2023-01-29T02:48:16.632Z,80.6
2023-01-29T02:49:17.143Z,80.4
2023-01-29T02:50:17.516Z,80.2
2023-01-29T02:51:17.270Z,80.3
2023-01-29T02:52:16.606Z,80.2
2023-01-29T02:53:17.109Z,80.2
2023-01-29T02:54:16.642Z,80.3
2023-01-29T02:55:17.153Z,80.2
2023-01-29T02:56:16.684Z,80.3
2023-01-29T02:57:17.162Z,80.4
2023-01-29T02:58:16.682Z,80.6
2023-01-29T02:59:17.305Z,80.5
2023-01-29T03:00:17.475Z,80.7
2023-01-29T03:01:17.209Z,80.5
2023-01-29T03:02:17.064Z,80.4
2023-01-29T03:03:16.613Z,80.4
2023-01-29T03:04:17.123Z,80.4
2023-01-29T03:05:16.620Z,80.5
2023-01-29T03:06:17.121Z,80.4
2023-01-29T03:07:16.605Z,80.3
2023-01-29T03:08:17.117Z,80.4
2023-01-29T03:09:16.630Z,80.4
2023-01-29T03:10:17.968Z,80.3
2023-01-29T03:11:16.621Z,80.3
2023-01-29T03:12:20.287Z,80.5
2023-01-29T03:13:16.863Z,80.4
2023-01-29T03:14:17.531Z,80.5
2023-01-29T03:15:17.045Z,80.8
2023-01-29T03:16:16.706Z,80.5
2023-01-29T03:17:17.221Z,80.6
2023-01-29T03:18:16.720Z,80.2
2023-01-29T03:19:17.218Z,80.4
2023-01-29T03:20:17.966Z,80.6
2023-01-29T03:21:16.644Z,80.6
2023-01-29T03:22:16.877Z,80.8
2023-01-29T03:23:17.431Z,80.8
2023-01-29T03:24:17.065Z,80.7
2023-01-29T03:25:16.590Z,80.6
2023-01-29T03:26:17.097Z,80.5
2023-01-29T03:27:16.600Z,80.6
2023-01-29T03:28:17.087Z,80.8
2023-01-29T03:29:16.593Z,80.7
2023-01-29T03:30:17.749Z,80.7
2023-01-29T03:31:17.669Z,80.7
2023-01-29T03:32:16.622Z,80.3
2023-01-29T03:33:17.135Z,80.3
2023-01-29T03:34:16.832Z,80.3
2023-01-29T03:35:17.357Z,80.3
2023-01-29T03:36:16.874Z,80.3
2023-01-29T03:37:17.388Z,80.3
2023-01-29T03:38:16.888Z,80.1
2023-01-29T03:39:17.392Z,80.3
2023-01-29T03:40:17.557Z,80.4
2023-01-29T03:41:17.259Z,80.3
2023-01-29T03:42:16.643Z,80.0
2023-01-29T03:43:17.161Z,80.4
2023-01-29T03:44:16.656Z,80.6
2023-01-29T03:45:17.131Z,80.5
2023-01-29T03:46:16.645Z,80.3
2023-01-29T03:47:17.185Z,80.3
2023-01-29T03:48:16.683Z,80.3
2023-01-29T03:49:17.187Z,80.5
2023-01-29T03:50:17.307Z,80.6
2023-01-29T03:51:17.034Z,80.4
2023-01-29T03:52:16.472Z,80.2
2023-01-29T03:53:17.060Z,80.6
2023-01-29T03:54:16.604Z,80.7
2023-01-29T03:55:17.109Z,80.6
2023-01-29T03:56:16.607Z,80.7
2023-01-29T03:57:17.110Z,80.7
2023-01-29T03:58:16.608Z,80.8
2023-01-29T03:59:17.105Z,80.5
2023-01-29T04:00:17.188Z,79.9
2023-01-29T04:01:16.947Z,79.9
2023-01-29T04:02:16.723Z,80.1
2023-01-29T04:03:17.273Z,80.2
2023-01-29T04:04:16.981Z,80.1
2023-01-29T04:05:16.479Z,80.0
2023-01-29T04:06:17.031Z,79.9
2023-01-29T04:07:16.533Z,79.9
2023-01-29T04:08:17.031Z,80.0
2023-01-29T04:09:16.533Z,80.2
2023-01-29T04:10:17.726Z,80.2
2023-01-29T04:11:17.394Z,80.3
2023-01-29T04:12:17.053Z,80.4
2023-01-29T04:13:16.539Z,80.3
2023-01-29T04:14:17.048Z,80.2
2023-01-29T04:15:16.576Z,80.3
2023-01-29T04:16:17.084Z,80.4
2023-01-29T04:17:16.642Z,80.6
2023-01-29T04:18:17.122Z,80.4
2023-01-29T04:19:16.678Z,80.3
2023-01-29T04:20:18.087Z,80.4
2023-01-29T04:21:16.766Z,80.5
2023-01-29T04:22:17.473Z,80.5
2023-01-29T04:23:16.955Z,80.3
2023-01-29T04:24:17.571Z,80.2
2023-01-29T04:25:17.097Z,80.2
2023-01-29T04:26:16.598Z,80.1
2023-01-29T04:27:17.081Z,80.2
2023-01-29T04:28:16.575Z,80.2
2023-01-29T04:29:17.065Z,80.4
2023-01-29T04:30:17.165Z,80.3
2023-01-29T04:31:17.021Z,80.4
2023-01-29T04:32:16.548Z,80.4
2023-01-29T04:33:17.053Z,80.4
2023-01-29T04:34:16.552Z,80.3
2023-01-29T04:35:17.045Z,80.4
2023-01-29T04:36:16.569Z,80.2
2023-01-29T04:37:17.096Z,80.2
2023-01-29T04:38:16.550Z,80.3
2023-01-29T04:39:17.051Z,80.3
2023-01-29T04:40:17.163Z,80.4
2023-01-29T04:41:16.830Z,80.4
2023-01-29T04:42:16.711Z,80.2
2023-01-29T04:43:17.202Z,80.3
2023-01-29T04:44:16.755Z,80.3
2023-01-29T04:45:17.285Z,80.3
2023-01-29T04:46:16.751Z,80.4
2023-01-29T04:47:17.396Z,80.4
2023-01-29T04:48:16.902Z,80.3
2023-01-29T04:49:17.428Z,80.3
2023-01-29T04:50:17.930Z,80.5
2023-01-29T04:51:16.541Z,80.3
2023-01-29T04:52:17.311Z,80.4
2023-01-29T04:53:16.803Z,80.8
2023-01-29T04:54:17.305Z,80.8
2023-01-29T04:55:16.799Z,80.9
2023-01-29T04:56:17.291Z,80.9
2023-01-29T04:57:16.848Z,80.7
2023-01-29T04:58:17.367Z,80.5
2023-01-29T04:59:16.863Z,80.5
2023-01-29T05:00:18.000Z,80.8
2023-01-29T05:01:16.703Z,80.8
2023-01-29T05:02:17.258Z,80.8
2023-01-29T05:03:16.793Z,80.8
2023-01-29T05:04:17.348Z,80.9
2023-01-29T05:05:16.892Z,80.7
2023-01-29T05:06:17.436Z,80.5
2023-01-29T05:07:16.966Z,80.5
2023-01-29T05:08:17.484Z,80.6
2023-01-29T05:09:17.012Z,80.7
2023-01-29T05:10:17.068Z,80.6
2023-01-29T05:11:16.731Z,80.7
2023-01-29T05:12:16.532Z,80.6
2023-01-29T05:13:17.077Z,80.6
2023-01-29T05:14:16.696Z,80.6
2023-01-29T05:15:17.171Z,80.6
2023-01-29T05:16:16.802Z,80.6
2023-01-29T05:17:17.318Z,80.7
2023-01-29T05:18:16.804Z,80.5
2023-01-29T05:19:17.332Z,80.5
2023-01-29T05:20:17.656Z,80.5
2023-01-29T05:21:17.493Z,80.4
2023-01-29T05:22:17.146Z,80.8
2023-01-29T05:23:16.661Z,80.8
2023-01-29T05:24:17.275Z,80.8
2023-01-29T05:25:16.772Z,80.6
2023-01-29T05:26:17.291Z,80.6
2023-01-29T05:27:16.805Z,80.7
2023-01-29T05:28:17.339Z,80.7
2023-01-29T05:29:16.840Z,80.7
2023-01-29T05:30:18.075Z,80.9
2023-01-29T05:31:16.981Z,81.0
2023-01-29T05:32:17.430Z,81.1
2023-01-29T05:33:16.916Z,81.1
2023-01-29T05:34:17.462Z,81.2
2023-01-29T05:35:16.954Z,81.0
2023-01-29T05:36:17.524Z,81.0
2023-01-29T05:37:17.029Z,81.0
2023-01-29T05:38:16.518Z,81.2
2023-01-29T05:39:17.035Z,81.2
2023-01-29T05:40:17.238Z,81.2
2023-01-29T05:41:16.858Z,81.3
2023-01-29T05:42:16.553Z,81.0
2023-01-29T05:43:17.063Z,80.9
2023-01-29T05:44:16.589Z,80.8
2023-01-29T05:45:17.082Z,80.9
2023-01-29T05:46:16.631Z,81.0
2023-01-29T05:47:17.150Z,80.9
2023-01-29T05:48:16.679Z,81.1
2023-01-29T05:49:17.180Z,81.1
2023-01-29T05:50:17.272Z,81.0
2023-01-29T05:51:16.942Z,81.0
2023-01-29T05:52:16.757Z,81.0
2023-01-29T05:53:17.291Z,81.0
2023-01-29T05:54:16.941Z,81.2
2023-01-29T05:55:17.442Z,81.2
2023-01-29T05:56:16.928Z,81.1
2023-01-29T05:57:17.419Z,80.9
2023-01-29T05:58:16.929Z,80.9
2023-01-29T05:59:17.454Z,81.1
2023-01-29T06:00:17.670Z,81.1
2023-01-29T06:01:17.303Z,81.0
2023-01-29T06:02:16.888Z,81.1
2023-01-29T06:03:17.485Z,81.0
2023-01-29T06:04:16.983Z,81.2
2023-01-29T06:05:16.503Z,81.2
2023-01-29T06:06:17.025Z,81.2
2023-01-29T06:07:16.585Z,81.2
2023-01-29T06:08:17.125Z,81.1
2023-01-29T06:09:16.630Z,81.0
2023-01-29T06:10:18.041Z,81.0
2023-01-29T06:11:16.950Z,81.3
2023-01-29T06:12:17.003Z,81.5
2023-01-29T06:13:16.532Z,81.3
2023-01-29T06:14:17.093Z,81.2
2023-01-29T06:15:16.618Z,81.3
2023-01-29T06:16:17.274Z,81.0
2023-01-29T06:17:16.789Z,81.0
2023-01-29T06:18:17.270Z,81.2
2023-01-29T06:19:16.740Z,81.1
2023-01-29T06:20:17.943Z,81.1
2023-01-29T06:21:20.008Z,81.1
2023-01-29T06:22:17.271Z,81.0
2023-01-29T06:23:16.778Z,80.8
2023-01-29T06:24:17.468Z,80.9
2023-01-29T06:25:17.013Z,81.0
2023-01-29T06:26:16.515Z,80.9
2023-01-29T06:27:17.053Z,81.0
2023-01-29T06:28:16.591Z,81.1
2023-01-29T06:29:17.088Z,81.1
2023-01-29T06:30:17.142Z,81.1
2023-01-29T06:31:38.113Z,81.0
2023-01-29T06:32:17.494Z,81.0
2023-01-29T06:33:16.990Z,81.0
2023-01-29T06:34:16.458Z,81.0
2023-01-29T06:35:16.972Z,80.9
2023-01-29T06:36:16.483Z,81.0
2023-01-29T06:37:17.044Z,81.1
2023-01-29T06:38:16.533Z,81.2
2023-01-29T06:39:17.048Z,81.3
2023-01-29T06:40:17.189Z,81.4
2023-01-29T06:41:16.786Z,81.4
2023-01-29T06:42:16.600Z,81.3
2023-01-29T06:43:17.095Z,81.4
2023-01-29T06:44:16.566Z,81.4
2023-01-29T06:45:17.042Z,81.2
2023-01-29T06:46:16.539Z,81.4
2023-01-29T06:47:17.032Z,81.2
2023-01-29T06:48:16.568Z,81.3
2023-01-29T06:49:17.064Z,81.4
2023-01-29T06:50:17.560Z,81.4
2023-01-29T06:51:17.284Z,81.6
2023-01-29T06:52:16.564Z,81.7
2023-01-29T06:53:17.072Z,81.6
2023-01-29T06:54:16.550Z,81.5
2023-01-29T06:55:17.016Z,81.4
2023-01-29T06:56:16.515Z,81.4
2023-01-29T06:57:17.006Z,81.3
2023-01-29T06:58:16.493Z,81.3
2023-01-29T06:59:16.982Z,81.5
2023-01-29T07:00:17.197Z,81.8
2023-01-29T07:01:35.938Z,81.6
2023-01-29T07:02:17.057Z,81.6
2023-01-29T07:03:16.586Z,81.4
2023-01-29T07:04:17.096Z,81.4
2023-01-29T07:05:16.593Z,81.5
2023-01-29T07:06:17.094Z,81.5
2023-01-29T07:07:16.595Z,81.0
2023-01-29T07:08:17.084Z,81.2
2023-01-29T07:09:16.563Z,81.3
2023-01-29T07:10:17.764Z,81.3
2023-01-29T07:11:17.335Z,81.3
2023-01-29T07:12:16.546Z,81.3
2023-01-29T07:13:17.095Z,81.3
2023-01-29T07:14:16.595Z,81.3
2023-01-29T07:15:17.170Z,81.2
2023-01-29T07:16:16.812Z,81.1
2023-01-29T07:17:17.349Z,81.0
2023-01-29T07:18:16.857Z,81.0
2023-01-29T07:19:17.514Z,81.1
2023-01-29T07:20:17.638Z,80.9
2023-01-29T07:21:17.275Z,81.1
2023-01-29T07:22:17.247Z,81.0
2023-01-29T07:23:16.735Z,80.6
2023-01-29T07:24:17.304Z,80.7
2023-01-29T07:25:16.816Z,80.7
2023-01-29T07:26:17.356Z,80.8
2023-01-29T07:27:16.857Z,80.6
2023-01-29T07:28:17.353Z,80.9
2023-01-29T07:29:16.892Z,81.0
2023-01-29T07:30:18.103Z,81.0
2023-01-29T07:31:17.227Z,81.0
2023-01-29T07:32:16.949Z,80.9
2023-01-29T07:33:16.458Z,80.8
2023-01-29T07:34:16.998Z,80.5
2023-01-29T07:35:16.496Z,80.6
2023-01-29T07:36:16.986Z,80.7
2023-01-29T07:37:16.471Z,80.4
2023-01-29T07:38:16.978Z,80.5
2023-01-29T07:39:16.479Z,80.8
2023-01-29T07:40:17.529Z,81.1
2023-01-29T07:41:17.170Z,80.8
2023-01-29T07:42:17.181Z,80.8
2023-01-29T07:43:16.696Z,80.4
2023-01-29T07:44:17.220Z,80.6
2023-01-29T07:45:16.752Z,80.6
2023-01-29T07:46:17.537Z,80.5
2023-01-29T07:47:17.548Z,80.4
2023-01-29T07:48:17.028Z,80.4
2023-01-29T07:49:16.512Z,80.3
2023-01-29T07:50:17.651Z,80.4
2023-01-29T07:51:17.294Z,80.4
2023-01-29T07:52:16.659Z,80.3
2023-01-29T07:53:17.182Z,80.0
2023-01-29T07:54:16.697Z,79.3
2023-01-29T07:55:17.201Z,79.0
2023-01-29T07:56:16.710Z,79.4
2023-01-29T07:57:17.217Z,79.8
2023-01-29T07:58:16.712Z,79.3
2023-01-29T07:59:17.238Z,79.3
2023-01-29T08:00:17.406Z,79.7
2023-01-29T08:01:17.202Z,79.9
2023-01-29T08:02:16.869Z,79.9
2023-01-29T08:03:17.447Z,80.0
2023-01-29T08:04:16.963Z,80.1
2023-01-29T08:05:17.478Z,80.0
2023-01-29T08:06:16.970Z,80.1
2023-01-29T08:07:16.466Z,80.2
2023-01-29T08:08:16.998Z,80.4
2023-01-29T08:09:16.505Z,80.6
2023-01-29T08:10:17.683Z,80.5
2023-01-29T08:11:17.364Z,80.3
2023-01-29T08:12:17.277Z,80.2
2023-01-29T08:13:16.783Z,80.1
2023-01-29T08:14:17.264Z,80.2
2023-01-29T08:15:16.759Z,80.2
2023-01-29T08:16:17.371Z,80.2
2023-01-29T08:17:16.910Z,80.2
2023-01-29T08:18:17.406Z,80.4
2023-01-29T08:19:16.921Z,80.2
2023-01-29T08:20:18.268Z,80.0
2023-01-29T08:21:16.960Z,79.9
2023-01-29T08:22:16.861Z,79.5
2023-01-29T08:23:17.362Z,79.6
2023-01-29T08:24:17.002Z,79.6
2023-01-29T08:25:16.563Z,79.8
2023-01-29T08:26:17.043Z,79.8
2023-01-29T08:27:16.519Z,79.7
2023-01-29T08:28:17.058Z,79.4
2023-01-29T08:29:16.535Z,79.1
2023-01-29T08:30:18.635Z,78.8
2023-01-29T08:31:17.223Z,79.4
2023-01-29T08:32:17.338Z,79.6
2023-01-29T08:33:29.574Z,79.3
2023-01-29T08:34:16.536Z,79.8
2023-01-29T08:35:17.658Z,79.8
2023-01-29T08:36:17.339Z,79.7
2023-01-29T08:37:16.842Z,79.3
2023-01-29T08:38:17.362Z,79.7
2023-01-29T08:39:16.842Z,79.8
2023-01-29T08:40:17.986Z,80.0
2023-01-29T08:41:16.654Z,79.8
2023-01-29T08:42:17.246Z,79.8
2023-01-29T08:43:16.749Z,79.8
2023-01-29T08:44:17.231Z,80.0
2023-01-29T08:45:16.796Z,79.8
2023-01-29T08:46:17.452Z,79.9
2023-01-29T08:47:17.000Z,79.8
2023-01-29T08:48:16.552Z,79.9
2023-01-29T08:49:17.025Z,79.8
2023-01-29T08:50:17.259Z,79.6
2023-01-29T08:51:17.023Z,79.8
2023-01-29T08:52:17.375Z,79.8
2023-01-29T08:53:16.882Z,79.8
2023-01-29T08:54:17.376Z,79.3
2023-01-29T08:55:17.626Z,79.4
2023-01-29T08:56:17.319Z,79.5
2023-01-29T08:57:16.803Z,79.7
2023-01-29T08:58:17.319Z,79.2
2023-01-29T08:59:16.846Z,79.3
2023-01-29T09:00:18.167Z,79.6
2023-01-29T09:01:16.932Z,79.2
2023-01-29T09:02:16.897Z,79.2
2023-01-29T09:03:16.470Z,79.2
2023-01-29T09:04:16.988Z,79.4
2023-01-29T09:05:17.071Z,79.2
2023-01-29T09:06:16.745Z,79.2
2023-01-29T09:07:17.276Z,79.3
2023-01-29T09:08:16.790Z,79.2
2023-01-29T09:09:17.308Z,79.3
2023-01-29T09:10:16.847Z,79.5
2023-01-29T09:11:17.323Z,79.0
2023-01-29T09:12:16.693Z,79.1
2023-01-29T09:13:17.231Z,79.1
2023-01-29T09:14:16.757Z,79.0
2023-01-29T09:15:18.022Z,79.2
2023-01-29T09:16:16.835Z,79.3
2023-01-29T09:17:17.360Z,78.9
2023-01-29T09:18:16.860Z,78.7
2023-01-29T09:19:17.378Z,78.7
2023-01-29T09:20:16.936Z,78.9
2023-01-29T09:21:17.433Z,78.9
2023-01-29T09:22:17.290Z,78.9
2023-01-29T09:23:16.799Z,79.1
2023-01-29T09:24:17.308Z,79.1
2023-01-29T09:25:17.597Z,78.9
2023-01-29T09:26:17.377Z,79.1
2023-01-29T09:27:16.915Z,78.8
2023-01-29T09:28:17.420Z,78.6
2023-01-29T09:29:16.904Z,78.0
2023-01-29T09:30:17.405Z,78.0
2023-01-29T09:31:17.088Z,78.0
2023-01-29T09:32:51.937Z,77.6
2023-01-29T09:33:17.151Z,77.7
2023-01-29T09:34:16.660Z,78.0
2023-01-29T09:35:17.826Z,78.1
2023-01-29T09:36:17.457Z,78.1
2023-01-29T09:37:16.971Z,78.1
2023-01-29T09:38:16.554Z,78.3
2023-01-29T09:39:17.082Z,78.1
2023-01-29T09:40:16.577Z,78.2
2023-01-29T09:41:17.118Z,78.3
2023-01-29T09:42:16.610Z,78.0
2023-01-29T09:43:17.115Z,78.0
2023-01-29T09:44:16.601Z,77.9
2023-01-29T09:45:17.690Z,77.9
2023-01-29T09:46:17.415Z,78.0
2023-01-29T09:47:16.967Z,77.7
2023-01-29T09:48:16.476Z,77.4
2023-01-29T09:49:17.004Z,77.7
2023-01-29T09:50:20.257Z,77.6
2023-01-29T09:51:16.824Z,77.4
2023-01-29T09:52:16.743Z,77.5
2023-01-29T09:53:17.286Z,77.6
2023-01-29T09:54:16.796Z,77.6
2023-01-29T09:55:18.046Z,77.8
2023-01-29T09:56:16.716Z,77.8
2023-01-29T09:57:17.189Z,77.7
2023-01-29T09:58:16.663Z,77.2
2023-01-29T09:59:17.154Z,77.1
2023-01-29T10:00:16.652Z,77.5
2023-01-29T10:01:17.363Z,77.9
2023-01-29T10:02:16.710Z,77.8
2023-01-29T10:03:17.256Z,76.8
2023-01-29T10:04:16.899Z,76.9
2023-01-29T10:05:18.263Z,76.3
2023-01-29T10:06:16.941Z,76.5
2023-01-29T10:07:17.447Z,76.7
2023-01-29T10:08:16.918Z,76.9
2023-01-29T10:09:17.507Z,77.2
2023-01-29T10:10:17.071Z,76.9
2023-01-29T10:11:16.591Z,76.3
2023-01-29T10:12:16.488Z,76.4
2023-01-29T10:13:16.997Z,76.3
2023-01-29T10:14:16.489Z,76.4
2023-01-29T10:15:17.725Z,76.3
2023-01-29T10:16:17.403Z,77.0
2023-01-29T10:17:17.089Z,77.3
2023-01-29T10:18:16.609Z,76.7
2023-01-29T10:19:17.114Z,76.1
2023-01-29T10:20:16.634Z,76.6
2023-01-29T10:21:17.151Z,77.3
2023-01-29T10:22:16.633Z,77.0
2023-01-29T10:23:17.143Z,76.7
2023-01-29T10:24:16.660Z,76.8
2023-01-29T10:25:17.676Z,76.9
2023-01-29T10:26:17.441Z,76.5
2023-01-29T10:27:16.969Z,76.5
2023-01-29T10:28:17.450Z,76.3
2023-01-29T10:29:16.947Z,76.0
2023-01-29T10:30:17.455Z,75.6
2023-01-29T10:31:17.224Z,75.8
2023-01-29T10:32:16.842Z,75.6
2023-01-29T10:33:17.329Z,75.6
2023-01-29T10:34:16.861Z,74.9
2023-01-29T10:35:18.179Z,75.5
2023-01-29T10:36:16.837Z,76.0
2023-01-29T10:37:17.347Z,75.8
2023-01-29T10:38:16.872Z,75.6
2023-01-29T10:39:17.400Z,75.0
2023-01-29T10:40:16.886Z,75.5
2023-01-29T10:41:17.373Z,75.5
2023-01-29T10:42:17.353Z,75.1
2023-01-29T10:43:16.888Z,75.3
2023-01-29T10:44:17.393Z,75.3
2023-01-29T10:45:17.820Z,75.4
2023-01-29T10:46:16.687Z,75.2
2023-01-29T10:47:17.321Z,75.1
2023-01-29T10:48:16.850Z,74.9
2023-01-29T10:49:17.378Z,75.6
2023-01-29T10:50:16.856Z,75.6
2023-01-29T10:51:17.365Z,75.6
2023-01-29T10:52:17.090Z,76.0
2023-01-29T10:53:16.592Z,76.0
2023-01-29T10:54:17.061Z,76.0
2023-01-29T10:55:17.307Z,74.7
2023-01-29T10:56:23.626Z,75.3
2023-01-29T10:57:17.191Z,75.9
2023-01-29T10:58:16.710Z,75.7
2023-01-29T10:59:17.221Z,75.2
2023-01-29T11:00:16.788Z,75.8
2023-01-29T11:01:17.420Z,75.7
2023-01-29T11:02:16.667Z,75.4
2023-01-29T11:03:28.761Z,75.8
2023-01-29T11:04:17.344Z,76.1
2023-01-29T11:05:17.554Z,75.7
2023-01-29T11:06:17.220Z,75.7
2023-01-29T11:07:16.702Z,76.0
2023-01-29T11:08:17.229Z,76.2
2023-01-29T11:09:16.723Z,76.4
2023-01-29T11:10:18.023Z,76.6
2023-01-29T11:11:16.675Z,76.5
2023-01-29T11:12:16.543Z,76.4
2023-01-29T11:13:17.082Z,76.3
2023-01-29T11:14:16.604Z,76.2
2023-01-29T11:15:17.142Z,76.1
2023-01-29T11:16:16.646Z,75.8
2023-01-29T11:17:17.298Z,75.2
2023-01-29T11:18:16.795Z,75.4
2023-01-29T11:19:17.285Z,75.6
2023-01-29T11:20:17.598Z,75.7
2023-01-29T11:21:17.235Z,76.0
2023-01-29T11:22:16.813Z,76.1
2023-01-29T11:23:17.322Z,76.1
2023-01-29T11:24:16.846Z,76.5
2023-01-29T11:25:17.392Z,76.1
2023-01-29T11:26:16.966Z,76.4
2023-01-29T11:27:16.627Z,76.4
2023-01-29T11:28:17.130Z,76.5
2023-01-29T11:29:16.631Z,76.7
2023-01-29T11:30:18.098Z,76.3
2023-01-29T11:31:17.160Z,76.3
2023-01-29T11:32:17.435Z,76.0
2023-01-29T11:33:17.003Z,75.8
2023-01-29T11:34:16.490Z,75.7
2023-01-29T11:35:16.987Z,76.1
2023-01-29T11:36:16.455Z,76.2
2023-01-29T11:37:17.140Z,76.4
2023-01-29T11:38:16.695Z,76.4
2023-01-29T11:39:17.222Z,76.5
2023-01-29T11:40:17.477Z,76.6
2023-01-29T11:41:17.119Z,76.7
2023-01-29T11:42:16.830Z,77.1
2023-01-29T11:43:17.318Z,77.4
2023-01-29T11:44:16.818Z,77.4
2023-01-29T11:45:17.306Z,77.2
2023-01-29T11:46:16.831Z,77.1
2023-01-29T11:47:17.315Z,77.2
2023-01-29T11:48:16.803Z,77.2
2023-01-29T11:49:21.178Z,77.3
2023-01-29T11:50:17.372Z,77.0
2023-01-29T11:51:16.986Z,76.8
2023-01-29T11:52:16.770Z,76.3
2023-01-29T11:53:17.261Z,76.5
2023-01-29T11:54:16.760Z,76.7
2023-01-29T11:55:17.264Z,76.4
2023-01-29T11:56:16.752Z,76.8
2023-01-29T11:57:20.152Z,77.0
2023-01-29T11:58:16.707Z,77.2
2023-01-29T11:59:17.198Z,77.5
2023-01-29T12:00:17.254Z,77.2
2023-01-29T12:01:16.951Z,77.1
2023-01-29T12:02:17.031Z,77.1
2023-01-29T12:03:16.502Z,76.8
2023-01-29T12:04:17.025Z,76.7
2023-01-29T12:05:16.521Z,76.7
2023-01-29T12:06:17.030Z,76.5
2023-01-29T12:07:16.587Z,76.2
2023-01-29T12:08:17.101Z,76.4
2023-01-29T12:09:17.190Z,76.8
2023-01-29T12:10:17.128Z,76.9
2023-01-29T12:11:16.761Z,76.6
2023-01-29T12:12:16.520Z,76.4
2023-01-29T12:13:17.037Z,76.2
2023-01-29T12:14:16.502Z,75.8
2023-01-29T12:15:17.031Z,76.0
2023-01-29T12:16:16.638Z,76.1
2023-01-29T12:17:17.251Z,75.8
2023-01-29T12:18:16.744Z,75.7
2023-01-29T12:19:17.251Z,76.0
2023-01-29T12:20:17.374Z,76.2
2023-01-29T12:21:17.027Z,76.1
2023-01-29T12:22:16.900Z,76.2
2023-01-29T12:23:17.399Z,76.4
2023-01-29T12:24:16.927Z,76.3
2023-01-29T12:25:17.437Z,76.5
2023-01-29T12:26:17.034Z,76.3
2023-01-29T12:27:16.681Z,76.5
2023-01-29T12:28:17.214Z,76.3
2023-01-29T12:29:16.721Z,76.4
2023-01-29T12:30:18.017Z,76.3
2023-01-29T12:31:16.820Z,76.1
2023-01-29T12:32:16.519Z,75.9
2023-01-29T12:33:17.032Z,75.9
2023-01-29T12:34:16.526Z,75.1
2023-01-29T12:35:17.057Z,75.1
2023-01-29T12:36:16.548Z,75.5
2023-01-29T12:37:17.059Z,75.6
2023-01-29T12:38:16.537Z,75.7
2023-01-29T12:39:17.051Z,76.1
2023-01-29T12:40:17.503Z,76.9
2023-01-29T12:41:17.286Z,76.2
2023-01-29T12:42:17.471Z,76.2
2023-01-29T12:43:16.988Z,76.4
2023-01-29T12:44:16.500Z,76.5
2023-01-29T12:45:16.986Z,76.7
2023-01-29T12:46:16.509Z,76.8
2023-01-29T12:47:17.338Z,76.7
2023-01-29T12:48:16.849Z,76.7
2023-01-29T12:49:17.389Z,76.8
2023-01-29T12:50:17.562Z,76.9
2023-01-29T12:51:17.174Z,76.8
2023-01-29T12:52:17.146Z,76.8
2023-01-29T12:53:16.642Z,76.9
2023-01-29T12:54:17.146Z,76.5
2023-01-29T12:55:16.629Z,76.4
2023-01-29T12:56:17.119Z,76.5
2023-01-29T12:57:16.610Z,76.4
2023-01-29T12:58:17.099Z,76.5
2023-01-29T12:59:16.604Z,76.6
2023-01-29T13:00:18.012Z,76.5
2023-01-29T13:01:16.817Z,77.2
2023-01-29T13:02:16.950Z,77.1
2023-01-29T13:03:17.739Z,77.0
2023-01-29T13:04:17.352Z,77.2
2023-01-29T13:05:17.073Z,77.1
2023-01-29T13:06:16.557Z,77.0
2023-01-29T13:07:17.084Z,76.7
2023-01-29T13:08:16.575Z,76.4
2023-01-29T13:09:17.114Z,76.1
2023-01-29T13:10:17.259Z,76.0
2023-01-29T13:11:16.890Z,76.3
2023-01-29T13:12:16.638Z,76.3
2023-01-29T13:13:17.153Z,76.2
2023-01-29T13:14:16.647Z,76.5
2023-01-29T13:15:17.143Z,76.6
2023-01-29T13:16:16.703Z,76.5
2023-01-29T13:17:17.216Z,76.6
2023-01-29T13:18:16.730Z,76.7